createdAt,value
2019-02-05T00:02:26.518Z,4.80
2019-02-05T00:04:59.173Z,5.27
2019-02-05T00:07:32.269Z,4.60
2019-02-05T00:10:05.263Z,4.70
2019-02-05T00:12:37.889Z,4.80
2019-02-05T00:15:10.527Z,4.23
2019-02-05T00:17:43.234Z,5.00
2019-02-05T00:20:15.866Z,4.30
2019-02-05T00:22:48.486Z,4.03
2019-02-05T00:25:21.906Z,4.60
2019-02-05T00:27:54.599Z,5.00
2019-02-05T00:30:27.350Z,5.07
2019-02-05T00:32:59.967Z,4.50
2019-02-05T00:35:32.605Z,4.60
2019-02-05T00:38:05.230Z,4.53
2019-02-05T00:40:37.874Z,4.43
2019-02-05T00:43:10.869Z,5.10
2019-02-05T00:45:43.522Z,4.70
2019-02-05T00:48:16.154Z,5.40
2019-02-05T00:50:48.790Z,4.80
2019-02-05T00:53:21.415Z,4.40
2019-02-05T00:55:54.097Z,4.83
2019-02-05T00:58:26.723Z,4.87
2019-02-05T01:00:59.442Z,5.37
2019-02-05T01:03:32.123Z,4.97
2019-02-05T01:06:05.232Z,4.63
2019-02-05T01:08:37.862Z,5.00
2019-02-05T01:11:10.507Z,4.57
2019-02-05T01:13:43.170Z,4.60
2019-02-05T01:16:15.873Z,5.23
2019-02-05T01:18:48.498Z,4.93
2019-02-05T01:21:21.157Z,4.50
2019-02-05T01:23:53.776Z,4.77
2019-02-05T01:26:29.412Z,4.87
2019-02-05T01:29:00.825Z,4.50
2019-02-05T01:31:33.473Z,4.87
2019-02-05T01:34:06.093Z,5.43
2019-02-05T01:36:38.746Z,4.83
2019-02-05T01:39:11.407Z,4.80
2019-02-05T01:41:44.039Z,5.17
2019-02-05T01:44:16.761Z,4.80
2019-02-05T01:46:49.415Z,4.30
2019-02-05T01:49:22.050Z,4.83
2019-02-05T01:51:54.693Z,4.70
2019-02-05T01:54:27.346Z,4.90
2019-02-05T01:57:00.078Z,5.30
2019-02-05T01:59:32.814Z,5.37
2019-02-05T02:02:05.464Z,4.50
2019-02-05T02:04:38.368Z,5.17
2019-02-05T02:07:11.030Z,4.73
2019-02-05T02:09:43.762Z,5.00
2019-02-05T02:12:16.401Z,5.20
2019-02-05T02:15:28.314Z,4.93
2019-02-05T02:18:00.956Z,4.93
2019-02-05T02:20:33.607Z,5.23
2019-02-05T02:23:06.265Z,6.03
2019-02-05T02:25:38.960Z,6.37
2019-02-05T02:28:11.637Z,6.33
2019-02-05T02:30:44.255Z,6.17
2019-02-05T02:33:16.901Z,7.07
2019-02-05T02:49:01.214Z,7.00
2019-02-05T02:51:33.853Z,7.53
2019-02-05T02:54:06.562Z,7.60
2019-02-05T02:56:39.204Z,7.40
2019-02-05T02:59:11.859Z,7.77
2019-02-05T03:01:44.647Z,8.37
2019-02-05T03:04:17.286Z,7.67
2019-02-05T03:06:49.929Z,7.63
2019-02-05T03:09:22.591Z,9.27
2019-02-05T03:11:55.257Z,8.23
2019-02-05T03:14:27.961Z,8.30
2019-02-05T03:17:00.673Z,8.33
2019-02-05T03:19:33.365Z,8.20
2019-02-05T03:22:06.100Z,9.00
2019-02-05T03:24:38.767Z,8.23
2019-02-05T03:27:32.968Z,8.27
2019-02-05T03:29:45.838Z,9.60
2019-02-05T03:32:18.919Z,9.00
2019-02-05T03:34:51.570Z,9.10
2019-02-05T03:37:24.263Z,9.03
2019-02-05T03:39:56.959Z,9.43
2019-02-05T03:42:29.610Z,8.70
2019-02-05T03:45:02.574Z,9.50
2019-02-05T03:47:35.307Z,9.30
2019-02-05T03:50:07.975Z,8.50
2019-02-05T03:52:49.388Z,8.87
2019-02-05T03:55:29.767Z,9.20
2019-02-05T03:58:33.435Z,9.00
2019-02-05T04:01:35.819Z,8.93
2019-02-05T04:04:49.055Z,8.53
2019-02-05T04:07:59.125Z,8.37
2019-02-05T04:11:00.317Z,8.37
2019-02-05T04:14:35.653Z,8.93
2019-02-05T04:17:51.390Z,9.60
2019-02-05T04:20:46.890Z,8.80
2019-02-05T04:23:59.944Z,8.97
2019-02-05T04:27:13.822Z,7.83
2019-02-05T04:30:20.869Z,9.07
2019-02-05T04:33:19.251Z,8.47
2019-02-05T04:36:20.684Z,7.90
2019-02-05T04:39:27.316Z,8.13
2019-02-05T04:42:52.258Z,8.30
2019-02-05T04:46:09.467Z,8.87
2019-02-05T04:49:02.777Z,8.17
2019-02-05T04:51:53.054Z,7.67
2019-02-05T04:55:03.420Z,7.80
2019-02-05T04:58:16.236Z,8.00
2019-02-05T05:01:54.848Z,7.80
2019-02-05T05:04:49.302Z,7.30
2019-02-05T05:08:06.910Z,7.77
2019-02-05T05:10:39.633Z,7.07
2019-02-05T05:13:12.302Z,6.97
2019-02-05T05:15:44.963Z,7.13
2019-02-05T05:18:17.911Z,7.17
2019-02-05T05:20:50.598Z,6.83
2019-02-05T05:23:23.295Z,6.90
2019-02-05T05:25:56.018Z,7.17
2019-02-05T05:28:28.705Z,6.53
2019-02-05T05:31:01.442Z,6.83
2019-02-05T05:33:34.142Z,7.27
2019-02-05T05:36:06.847Z,7.80
2019-02-05T05:38:39.559Z,7.67
2019-02-05T05:41:12.233Z,7.33
2019-02-05T05:43:44.891Z,7.83
2019-02-05T05:46:17.534Z,8.27
2019-02-05T05:48:50.299Z,7.67
2019-02-05T05:51:22.979Z,7.43
2019-02-05T05:53:55.638Z,8.10
2019-02-05T05:56:30.884Z,8.00
2019-02-05T05:59:03.731Z,6.50
2019-02-05T06:01:36.472Z,6.87
2019-02-05T06:04:09.179Z,7.40
2019-02-05T06:06:41.868Z,7.13
2019-02-05T06:09:14.946Z,7.00
2019-02-05T06:11:47.839Z,7.33
2019-02-05T06:14:20.561Z,6.40
2019-02-05T06:16:53.216Z,6.50
2019-02-05T06:19:26.255Z,6.47
2019-02-05T06:21:58.925Z,6.20
2019-02-05T06:24:34.380Z,6.57
2019-02-05T06:27:07.352Z,6.50
2019-02-05T06:29:40.245Z,6.43
2019-02-05T06:32:13.312Z,6.07
2019-02-05T06:34:46.005Z,6.47
2019-02-05T06:37:24.183Z,6.80
2019-02-05T06:39:56.871Z,6.53
2019-02-05T06:42:29.775Z,6.30
2019-02-05T06:45:02.570Z,6.30
2019-02-05T06:47:35.364Z,6.80
2019-02-05T06:50:08.695Z,6.97
2019-02-05T06:52:43.062Z,7.07
2019-02-05T06:55:16.263Z,7.10
2019-02-05T06:57:51.919Z,7.10
2019-02-05T07:00:24.684Z,7.37
2019-02-05T07:02:57.360Z,7.03
2019-02-05T07:05:30.243Z,6.37
2019-02-05T07:08:02.997Z,7.47
2019-02-05T07:10:35.703Z,6.27
2019-02-05T07:13:08.497Z,6.97
2019-02-05T07:15:41.291Z,7.13
2019-02-05T07:18:14.058Z,6.63
2019-02-05T07:20:46.750Z,7.17
2019-02-05T07:23:19.404Z,7.20
2019-02-05T07:25:52.082Z,6.70
2019-02-05T07:28:24.762Z,7.53
2019-02-05T07:30:57.531Z,7.90
2019-02-05T07:33:30.189Z,8.40
2019-02-05T07:36:02.938Z,7.50
2019-02-05T07:38:35.612Z,7.90
2019-02-05T07:41:08.488Z,7.40
2019-02-05T07:43:41.233Z,8.37
2019-02-05T07:46:14.370Z,7.90
2019-02-05T07:48:47.040Z,8.80
2019-02-05T07:51:32.332Z,8.60
2019-02-05T07:54:05.035Z,8.73
2019-02-05T07:56:38.209Z,8.13
2019-02-05T07:59:10.860Z,8.23
2019-02-05T08:01:43.604Z,8.77
2019-02-05T08:04:16.261Z,8.40
2019-02-05T08:06:48.943Z,8.10
2019-02-05T08:09:21.975Z,7.93
2019-02-05T08:11:54.654Z,8.67
2019-02-05T08:14:27.398Z,8.10
2019-02-05T08:17:00.066Z,7.73
2019-02-05T08:19:32.802Z,8.43
2019-02-05T08:22:05.474Z,8.33
2019-02-05T08:24:38.573Z,8.27
2019-02-05T08:27:11.234Z,8.77
2019-02-05T08:29:43.930Z,8.57
2019-02-05T08:32:16.612Z,8.07
2019-02-05T08:34:49.366Z,8.60
2019-02-05T08:37:22.462Z,8.67
2019-02-05T08:39:55.115Z,8.03
2019-02-05T08:42:27.836Z,8.90
2019-02-05T08:45:00.516Z,9.03
2019-02-05T08:47:33.363Z,8.80
2019-02-05T08:50:09.354Z,9.53
2019-02-05T08:52:42.095Z,9.23
2019-02-05T08:55:16.034Z,9.40
2019-02-05T08:57:49.622Z,10.00
2019-02-05T09:00:24.354Z,9.90
2019-02-05T09:02:57.046Z,9.90
2019-02-05T09:05:29.722Z,10.80
2019-02-05T09:08:02.538Z,9.93
2019-02-05T09:10:35.235Z,10.13
2019-02-05T09:13:07.918Z,10.43
2019-02-05T09:15:40.571Z,10.30
2019-02-05T09:18:13.263Z,10.43
2019-02-05T09:20:45.993Z,10.07
2019-02-05T09:23:18.757Z,11.20
2019-02-05T09:25:51.499Z,10.37
2019-02-05T09:28:24.167Z,9.87
2019-02-05T09:30:56.921Z,10.87
2019-02-05T09:33:29.668Z,9.93
2019-02-05T09:36:02.431Z,10.03
2019-02-05T09:38:35.110Z,9.80
2019-02-05T09:41:07.762Z,10.23
2019-02-05T09:43:40.518Z,10.00
2019-02-05T09:46:13.274Z,10.33
2019-02-05T09:48:45.972Z,9.27
2019-02-05T09:51:18.697Z,9.17
2019-02-05T09:53:51.403Z,10.63
2019-02-05T09:56:24.129Z,10.90
2019-02-05T09:58:56.808Z,11.27
2019-02-05T10:01:29.482Z,10.87
2019-02-05T10:04:02.231Z,10.73
2019-02-05T10:06:34.914Z,10.77
2019-02-05T10:09:08.139Z,11.00
2019-02-05T10:11:40.834Z,11.17
2019-02-05T10:14:13.579Z,11.20
2019-02-05T10:16:46.262Z,11.30
2019-02-05T10:19:18.983Z,10.63
2019-02-05T10:21:51.660Z,10.63
2019-02-05T10:24:24.348Z,10.43
2019-02-05T10:26:57.083Z,9.97
2019-02-05T10:29:29.746Z,11.07
2019-02-05T10:32:02.473Z,10.53
2019-02-05T10:34:35.296Z,11.20
2019-02-05T10:37:08.496Z,10.73
2019-02-05T10:39:41.218Z,10.50
2019-02-05T10:42:17.530Z,10.67
2019-02-05T10:44:50.668Z,10.23
2019-02-05T10:47:23.385Z,9.87
2019-02-05T10:49:56.346Z,8.80
2019-02-05T10:52:29.141Z,8.90
2019-02-05T10:55:04.001Z,8.67
2019-02-05T10:57:37.375Z,8.27
2019-02-05T11:00:16.293Z,8.37
2019-02-05T11:02:49.383Z,9.03
2019-02-05T11:05:23.918Z,8.20
2019-02-05T11:07:56.598Z,8.13
2019-02-05T11:10:29.265Z,8.67
2019-02-05T11:13:02.014Z,8.20
2019-02-05T11:15:34.667Z,8.73
2019-02-05T11:18:08.749Z,8.33
2019-02-05T11:20:41.487Z,8.60
2019-02-05T11:23:14.163Z,8.60
2019-02-05T11:25:46.831Z,9.93
2019-02-05T11:28:19.482Z,8.77
2019-02-05T11:30:52.187Z,9.87
2019-02-05T11:33:24.921Z,9.93
2019-02-05T11:35:57.657Z,10.43
2019-02-05T11:38:30.364Z,10.73
2019-02-05T11:41:03.054Z,10.60
2019-02-05T11:43:35.726Z,10.50
2019-02-05T11:46:08.402Z,10.37
2019-02-05T11:48:41.154Z,10.67
2019-02-05T11:51:13.897Z,10.87
2019-02-05T11:53:46.627Z,10.83
2019-02-05T11:56:19.294Z,10.87
2019-02-05T11:58:51.954Z,11.00
2019-02-05T12:01:24.691Z,10.40
2019-02-05T12:03:57.395Z,9.80
2019-02-05T12:06:30.112Z,9.63
2019-02-05T12:09:02.927Z,9.53
2019-02-05T12:11:35.663Z,9.57
2019-02-05T12:14:08.323Z,9.80
2019-02-05T12:16:41.014Z,10.03
2019-02-05T12:19:13.683Z,10.27
2019-02-05T12:21:46.433Z,10.63
2019-02-05T12:24:19.284Z,10.67
2019-02-05T12:26:51.958Z,10.50
2019-02-05T12:29:24.629Z,10.60
2019-02-05T12:31:57.297Z,10.77
2019-02-05T12:34:29.946Z,9.93
2019-02-05T12:37:02.608Z,9.67
2019-02-05T12:39:35.277Z,10.37
2019-02-05T12:42:07.982Z,9.80
2019-02-05T12:44:40.654Z,9.70
2019-02-05T12:47:13.337Z,8.87
2019-02-05T12:49:46.003Z,9.37
2019-02-05T12:52:18.682Z,8.43
2019-02-05T12:54:51.352Z,8.97
2019-02-05T12:57:24.050Z,8.80
2019-02-05T12:59:56.798Z,8.60
2019-02-05T13:02:29.478Z,9.10
2019-02-05T13:05:02.156Z,9.03
2019-02-05T13:07:34.843Z,10.30
2019-02-05T13:10:09.505Z,9.30
2019-02-05T13:12:42.464Z,9.13
2019-02-05T13:15:15.122Z,8.97
2019-02-05T13:17:47.913Z,9.07
2019-02-05T13:20:22.686Z,9.30
2019-02-05T13:22:55.362Z,9.20
2019-02-05T13:25:28.471Z,9.43
2019-02-05T13:28:01.271Z,9.53
2019-02-05T13:30:34.088Z,9.70
2019-02-05T13:33:07.045Z,9.07
2019-02-05T13:35:40.101Z,9.17
2019-02-05T13:38:12.784Z,9.83
2019-02-05T13:40:45.539Z,9.53
2019-02-05T13:43:18.202Z,8.90
2019-02-05T13:45:51.849Z,9.00
2019-02-05T13:48:24.543Z,8.83
2019-02-05T13:50:57.265Z,8.57
2019-02-05T13:53:29.925Z,9.30
2019-02-05T13:56:05.293Z,9.60
2019-02-05T13:58:37.110Z,8.53
2019-02-05T14:01:19.598Z,9.00
2019-02-05T14:03:44.160Z,9.70
2019-02-05T14:06:16.841Z,9.07
2019-02-05T14:08:49.514Z,9.03
2019-02-05T14:11:22.151Z,9.37
2019-02-05T14:13:54.848Z,9.00
2019-02-05T14:16:27.499Z,9.47
2019-02-05T14:19:00.262Z,9.37
2019-02-05T14:21:32.970Z,9.37
2019-02-05T14:24:05.658Z,9.97
2019-02-05T14:26:38.346Z,9.77
2019-02-05T14:29:11.021Z,9.17
2019-02-05T14:31:43.669Z,9.50
2019-02-05T14:34:17.040Z,9.20
2019-02-05T14:36:49.741Z,9.30
2019-02-05T14:39:22.437Z,9.30
2019-02-05T14:41:55.122Z,9.43
2019-02-05T14:44:27.778Z,9.53
2019-02-05T14:47:00.445Z,8.80
2019-02-05T14:49:33.151Z,9.40
2019-02-05T14:52:05.865Z,10.50
2019-02-05T14:54:38.552Z,9.57
2019-02-05T14:57:11.207Z,9.20
2019-02-05T14:59:43.890Z,9.70
2019-02-05T15:02:16.549Z,10.27
2019-02-05T15:04:49.226Z,10.30
2019-02-05T15:07:21.906Z,10.07
2019-02-05T15:09:54.897Z,9.73
2019-02-05T15:12:27.550Z,9.90
2019-02-05T15:15:00.318Z,10.33
2019-02-05T15:17:33.019Z,10.00
2019-02-05T15:20:15.028Z,9.97
2019-02-05T15:22:47.717Z,9.00
2019-02-05T15:25:20.381Z,8.70
2019-02-05T15:27:53.045Z,8.30
2019-02-05T15:30:36.755Z,8.67
2019-02-05T15:33:11.386Z,8.30
2019-02-05T15:35:44.059Z,8.80
2019-02-05T15:38:16.693Z,8.77
2019-02-05T15:40:49.829Z,7.90
2019-02-05T15:43:22.513Z,8.80
2019-02-05T15:45:55.244Z,8.93
2019-02-05T15:48:27.910Z,8.80
2019-02-05T15:51:00.594Z,7.87
2019-02-05T15:53:33.268Z,8.70
2019-02-05T15:56:06.050Z,8.27
2019-02-05T15:58:38.719Z,8.67
2019-02-05T16:01:11.438Z,8.77
2019-02-05T16:03:44.134Z,8.40
2019-02-05T16:06:16.777Z,8.63
2019-02-05T16:08:49.439Z,9.17
2019-02-05T16:11:22.101Z,8.87
2019-02-05T16:13:55.027Z,8.73
2019-02-05T16:16:28.210Z,8.80
2019-02-05T16:19:00.900Z,8.97
2019-02-05T16:21:33.592Z,8.93
2019-02-05T16:24:06.243Z,8.40
2019-02-05T16:26:39.096Z,8.20
2019-02-05T16:29:11.889Z,8.47
2019-02-05T16:31:44.574Z,8.17
2019-02-05T16:34:17.261Z,7.77
2019-02-05T16:36:49.944Z,8.37
2019-02-05T16:39:22.687Z,8.57
2019-02-05T16:41:55.351Z,9.30
2019-02-05T16:44:28.078Z,8.70
2019-02-05T16:47:00.746Z,8.67
2019-02-05T16:49:33.507Z,9.40
2019-02-05T16:52:06.698Z,8.73
2019-02-05T16:54:39.435Z,8.40
2019-02-05T16:57:12.158Z,8.47
2019-02-05T16:59:44.811Z,8.50
2019-02-05T17:02:28.429Z,8.67
2019-02-05T17:04:51.891Z,8.23
2019-02-05T17:07:24.567Z,8.50
2019-02-05T17:09:57.223Z,9.40
2019-02-05T17:12:29.905Z,8.90
2019-02-05T17:15:02.601Z,9.17
2019-02-05T17:17:35.266Z,8.53
2019-02-05T17:20:10.337Z,9.80
2019-02-05T17:22:43.021Z,9.20
2019-02-05T17:25:17.015Z,9.33
2019-02-05T17:27:50.015Z,10.53
2019-02-05T17:30:24.648Z,9.73
2019-02-05T17:32:57.324Z,10.67
2019-02-05T17:35:30.019Z,10.97
2019-02-05T17:38:02.754Z,11.00
2019-02-05T17:40:35.525Z,15.57
2019-02-05T17:43:08.203Z,10.77
2019-02-05T17:45:41.017Z,10.87
2019-02-05T17:48:15.547Z,12.30
2019-02-05T17:50:48.494Z,11.23
2019-02-05T17:53:21.427Z,12.23
2019-02-05T17:55:54.183Z,11.87
2019-02-05T17:58:26.890Z,11.43
2019-02-05T18:00:59.561Z,11.70
2019-02-05T18:03:32.270Z,11.70
2019-02-05T18:06:05.203Z,11.43
2019-02-05T18:08:37.891Z,12.53
2019-02-05T18:11:10.546Z,12.50
2019-02-05T18:13:43.642Z,12.17
2019-02-05T18:16:17.605Z,13.20
2019-02-05T18:18:50.313Z,12.53
2019-02-05T18:21:22.960Z,13.17
2019-02-05T18:23:55.638Z,12.90
2019-02-05T18:26:28.298Z,12.40
2019-02-05T18:29:00.986Z,12.10
2019-02-05T18:31:33.640Z,11.83
2019-02-05T18:34:06.323Z,12.70
2019-02-05T18:36:38.991Z,12.10
2019-02-05T18:39:11.719Z,12.73
2019-02-05T18:41:44.480Z,11.90
2019-02-05T18:44:17.206Z,13.20
2019-02-05T18:46:49.847Z,13.23
2019-02-05T18:49:22.955Z,12.37
2019-02-05T18:51:55.613Z,11.77
2019-02-05T18:54:28.299Z,12.43
2019-02-05T18:57:00.975Z,12.83
2019-02-05T18:59:33.684Z,12.93
2019-02-05T19:02:06.418Z,12.43
2019-02-05T19:04:39.121Z,12.50
2019-02-05T19:07:11.794Z,13.00
2019-02-05T19:09:44.578Z,13.30
2019-02-05T19:12:17.315Z,12.90
2019-02-05T19:14:50.083Z,12.73
2019-02-05T19:17:22.763Z,12.30
2019-02-05T19:19:55.441Z,11.97
2019-02-05T19:22:28.144Z,12.53
2019-02-05T19:25:01.191Z,12.47
2019-02-05T19:27:33.844Z,12.17
2019-02-05T19:30:07.726Z,13.07
2019-02-05T19:32:40.415Z,12.20
2019-02-05T19:35:13.098Z,11.90
2019-02-05T19:37:45.813Z,12.93
2019-02-05T19:40:18.504Z,12.00
2019-02-05T19:42:51.172Z,12.63
2019-02-05T19:45:23.883Z,12.97
2019-02-05T19:47:56.636Z,12.50
2019-02-05T19:50:29.302Z,12.63
2019-02-05T19:53:01.963Z,12.13
2019-02-05T19:55:34.634Z,12.53
2019-02-05T19:58:07.306Z,13.13
2019-02-05T20:00:39.983Z,12.80
2019-02-05T20:03:12.644Z,12.77
2019-02-05T20:05:45.319Z,12.87
2019-02-05T20:08:17.982Z,12.33
2019-02-05T20:10:50.659Z,12.90
2019-02-05T20:13:23.330Z,11.87
2019-02-05T20:15:56.273Z,13.33
2019-02-05T20:18:28.950Z,12.77
2019-02-05T20:21:01.617Z,12.40
2019-02-05T20:23:34.286Z,12.60
2019-02-05T20:26:06.960Z,13.13
2019-02-05T20:28:40.296Z,12.47
2019-02-05T20:31:12.963Z,13.07
2019-02-05T20:33:49.876Z,13.17
2019-02-05T20:36:20.050Z,12.00
2019-02-05T20:38:52.796Z,12.50
2019-02-05T20:41:25.784Z,11.40
2019-02-05T20:43:58.454Z,11.00
2019-02-05T20:46:31.118Z,11.33
2019-02-05T20:49:04.182Z,10.13
2019-02-05T20:51:36.862Z,10.17
2019-02-05T20:54:09.805Z,10.17
2019-02-05T20:56:42.485Z,11.17
2019-02-05T20:59:15.165Z,10.40
2019-02-05T21:01:47.902Z,10.37
2019-02-05T21:04:20.554Z,10.10
2019-02-05T21:06:53.513Z,9.73
2019-02-05T21:09:26.162Z,9.20
2019-02-05T21:11:58.826Z,9.77
2019-02-05T21:14:31.503Z,8.63
2019-02-05T21:17:04.295Z,8.87
2019-02-05T21:19:37.326Z,7.80
2019-02-05T21:22:09.991Z,7.73
2019-02-05T21:24:42.668Z,9.07
2019-02-05T21:27:15.336Z,9.50
2019-02-05T21:29:48.082Z,8.93
2019-02-05T21:32:21.116Z,7.40
2019-02-05T21:34:53.790Z,7.40
2019-02-05T21:37:26.572Z,8.27
2019-02-05T21:40:02.479Z,8.20
2019-02-05T21:42:33.613Z,8.83
2019-02-05T21:45:08.378Z,9.90
2019-02-05T21:47:41.085Z,9.87
2019-02-05T21:50:15.787Z,9.87
2019-02-05T21:52:48.746Z,10.03
2019-02-05T21:55:21.960Z,10.47
2019-02-05T21:57:54.639Z,10.63
2019-02-05T22:00:28.468Z,10.40
2019-02-05T22:03:01.194Z,10.80
2019-02-05T22:05:33.969Z,10.10
2019-02-05T22:08:08.780Z,10.77
2019-02-05T22:10:41.282Z,11.33
2019-02-05T22:13:14.019Z,11.23
2019-02-05T22:15:46.682Z,11.97
2019-02-05T22:18:19.478Z,12.10
2019-02-05T22:20:52.147Z,12.10
2019-02-05T22:23:25.205Z,11.73
2019-02-05T22:25:57.865Z,12.07
2019-02-05T22:28:30.540Z,10.90
2019-02-05T22:31:03.475Z,11.07
2019-02-05T22:33:36.173Z,11.40
2019-02-05T22:36:09.274Z,11.73
2019-02-05T22:38:41.937Z,11.87
2019-02-05T22:41:14.680Z,10.93
2019-02-05T22:43:47.385Z,10.80
2019-02-05T22:46:20.042Z,10.57
2019-02-05T22:48:52.735Z,10.73
2019-02-05T22:51:25.395Z,10.57
2019-02-05T22:53:58.090Z,10.50
2019-02-05T22:56:30.849Z,10.33
2019-02-05T22:59:04.063Z,9.90
2019-02-05T23:01:46.980Z,11.10
2019-02-05T23:04:37.378Z,10.13
2019-02-05T23:07:16.805Z,10.20
2019-02-05T23:10:20.518Z,10.67
2019-02-05T23:13:11.114Z,9.93
2019-02-05T23:15:45.946Z,9.07
2019-02-05T23:18:18.824Z,10.43
2019-02-05T23:20:53.899Z,9.97
2019-02-05T23:23:25.922Z,10.03
2019-02-05T23:25:58.615Z,9.77
2019-02-05T23:28:31.294Z,9.50
2019-02-05T23:31:04.050Z,10.03
2019-02-05T23:33:36.702Z,10.10
2019-02-05T23:36:09.370Z,9.87
2019-02-05T23:38:42.449Z,9.90
2019-02-05T23:41:15.663Z,10.73
2019-02-05T23:43:48.429Z,8.93
2019-02-05T23:46:21.168Z,10.00
2019-02-05T23:48:53.849Z,9.63
2019-02-05T23:51:26.531Z,10.03
2019-02-05T23:53:59.394Z,9.70
2019-02-05T23:56:32.138Z,10.00
2019-02-05T23:59:07.829Z,9.90
